Buckley, Michigan
Current Conditions -  °F | °C
As of 1:53 AM on Thursday 23 Oct 2014 (Local Time) from KTVC Reporting Station
Clear Clear  
Wind Chill: -1°   Ceiling: Unl
Heat Index: -1°   Visibility: 10mi
Dew Point: -2°   Wind: 0mph
Humidity: 89%   Direction: NA
Pressure: 30.27"   Gusts: NA
Location:  44.5°N, 85.68°W
Report Text: KTVC 230553Z 00000KT 10SM CLR M01/M02 A3027 RMK AO2 SLP257 I6001 T10061022 10039 21011 58004 $
Loading
Personal Weather Stations






























Interactive Weather Map
Tropical Storm Tracking
New forecast layout! Learn more

10-Day Weather Forecast

Advertisements
Track Severe Weather on mobile